Lifter — V2DD4 — position and weather

sailwx.info

Track history (hours):
 
Tides and Currents Weather Stations Pressure Air Temp Water Temp Dewpoint Dewpoint Depression Visibility Wind Speed Wind Dir Waves Ship Positions

Lifter

Last reported at 2016-May-30 17:31 UTC. Time now 2016-May-30 18:25 UTC.
Position N 51°15' E 004°24'.

Length 119 m; draft 4.8 m.

Type: Cargo ship. MMSI: 305175000.

Date/timePositionNaut miles runAvg speedWind from/ knotsBaromVisibWave heightAir tempDewpointWater temp
2016-May-30 17:31N 51°15' E 004°24'0 0.0
2016-May-30 16:31N 51°15' E 004°24'0 0.0
2016-May-30 15:31N 51°15' E 004°24'0 0.0
2016-May-30 14:31N 51°15' E 004°24'0 0.0
2016-May-30 13:31N 51°15' E 004°24'0 0.0
2016-May-30 12:31N 51°15' E 004°24'0 0.0
2016-May-30 11:31N 51°15' E 004°24'0 0.0
2016-May-30 10:31N 51°15' E 004°24'0 0.0
2016-May-30 09:31N 51°15' E 004°24'0 0.0
2016-May-30 08:31N 51°15' E 004°24'0 0.0
2016-May-30 07:31N 51°15' E 004°24'0 0.0
2016-May-30 06:31N 51°15' E 004°24'0 0.0
2016-May-30 05:31N 51°15' E 004°24'0 0.0
2016-May-30 04:31N 51°15' E 004°24'0 0.0
2016-May-30 03:31N 51°15' E 004°24'0 0.0
2016-May-30 02:31N 51°15' E 004°24'0 0.0
2016-May-30 01:31N 51°15' E 004°24'0 0.0
2016-May-30 00:31N 51°15' E 004°24'0 0.0
2016-May-29 23:31N 51°15' E 004°24'0 0.0
2016-May-29 22:31N 51°15' E 004°24'0 0.0
2016-May-29 21:31N 51°15' E 004°24'0 0.0
2016-May-29 20:31N 51°15' E 004°24'0 0.0
2016-May-29 19:31N 51°15' E 004°24'0 0.0
2016-May-29 18:31N 51°15' E 004°24'0 0.0
2016-May-29 17:31N 51°15' E 004°24'0 0.0
2016-May-29 16:31N 51°15' E 004°24'0 0.0
2016-May-29 15:31N 51°15' E 004°24'0 0.0
2016-May-29 14:31N 51°15' E 004°24'0 0.0
2016-May-29 13:31N 51°15' E 004°24'0 0.0
2016-May-29 12:31N 51°15' E 004°24'0 0.0
2016-May-29 11:31N 51°15' E 004°24'0 0.0
2016-May-29 10:31N 51°15' E 004°24'0 0.0
2016-May-29 09:31N 51°15' E 004°24'0 0.0
2016-May-29 08:31N 51°15' E 004°24'0 0.0
2016-May-29 07:31N 51°15' E 004°24'0 0.0
2016-May-29 06:31N 51°15' E 004°24'0 0.0
2016-May-29 05:31N 51°15' E 004°24'0 0.0
2016-May-29 04:31N 51°15' E 004°24'0 0.0
2016-May-29 03:33N 51°15' E 004°24'4 4.1
2016-May-29 02:33N 51°18' E 004°20'3 3.1
2016-May-29 01:33N 51°21' E 004°17'7 6.6
2016-May-29 00:33N 51°22' E 004°07'7 6.9
2016-May-28 23:33N 51°22' E 003°56'10 9.8
2016-May-28 22:33N 51°25' E 003°40'1010.4
2016-May-28 21:33N 51°31' E 003°27'1312.7
2016-May-28 20:32N 51°42' E 003°16'1312.9
2016-May-28 19:33N 51°46' E 002°57'1313.2
2016-May-28 18:33N 51°51' E 002°37'1313.2
2016-May-28 17:33N 52°03' E 002°27'1313.5
2016-May-28 16:33N 52°15' E 002°18'1414.0
2016-May-28 15:33N 52°27' E 002°07'1414.4
2016-May-28 14:33N 52°40' E 001°58'1514.7
2016-May-28 13:34N 52°51' E 001°42'1515.3
2016-May-28 12:33N 53°03' E 001°26'1515.3
2016-May-28 11:33N 53°16' E 001°12'1615.8
2016-May-28 10:33N 53°30' E 000°59'1414.3
2016-May-28 09:32N 53°42' E 000°45'1715.1
2016-May-28 08:26N 53°56' E 000°30'1315.1
2016-May-28 07:33N 54°08' E 000°20'1514.8
2016-May-28 06:33N 54°21' E 000°10'1514.6
2016-May-28 05:33N 54°35' E 000°02'1414.2
2016-May-28 04:33N 54°49' W 000°06'1414.0
2016-May-28 03:33N 55°01' W 000°16'1413.7
2016-May-28 02:31N 55°14' W 000°29'1313.6
2016-May-28 01:32N 55°25' W 000°41'1313.4
2016-May-28 00:32N 55°35' W 000°56'1313.3
2016-May-27 23:33N 55°45' W 001°12'1413.5
2016-May-27 22:33N 55°53' W 001°31'1413.9
2016-May-27 21:33N 56°00' W 001°52'1414.0
2016-May-27 20:33N 56°05' W 002°16'1414.0
2016-May-27 19:33N 56°06' W 002°41'1413.8
2016-May-27 18:33N 56°03' W 003°05'1211.0
2016-May-27 17:30N 56°01' W 003°25'0 0.0
2016-May-26 15:07N 56°01' W 003°25'4 6.8
2016-May-26 14:33N 56°01' W 003°19'1010.5
2016-May-26 13:33N 56°04' W 003°00'2 2.3
2016-May-26 12:33N 56°05' W 002°57'6 5.9
2016-May-26 11:33N 56°07' W 002°47'0 0.1
2016-May-26 10:33N 56°07' W 002°47'1 0.8
2016-May-26 09:33N 56°06' W 002°48'10 9.7
2016-May-26 08:33N 56°09' W 002°31'1211.7
2016-May-26 07:33N 56°18' W 002°17'1413.6
2016-May-26 06:34N 56°30' W 002°06'1413.9
2016-May-26 05:33N 56°43' W 001°58'1514.7
2016-May-26 04:33N 56°57' W 001°50'3015.1
2016-May-26 02:33N 57°26' W 001°34'24 0.6
2016-May-24 09:32N 57°45' W 002°00'1512.4
2016-May-24 08:19N 57°35' W 001°40'1114.0
2016-May-24 07:32N 57°24' W 001°36'5213.0
2016-May-24 03:32N 56°33' W 001°29'1212.1
2016-May-24 02:34N 56°21' W 001°28'1212.1
2016-May-24 01:34N 56°09' W 001°22'1312.7
2016-May-24 00:34N 55°57' W 001°14'1313.4
2016-May-23 23:33N 55°45' W 001°05'1413.7
2016-May-23 22:34N 55°32' W 000°55'1413.8
2016-May-23 21:34N 55°20' W 000°46'1413.7
2016-May-23 20:33N 55°07' W 000°37'1413.8
2016-May-23 19:33N 54°54' W 000°28'1313.2
2016-May-23 18:32N 54°42' W 000°16'1212.2
2016-May-23 17:33N 54°32' W 000°06'1211.8
2016-May-23 16:33N 54°22' E 000°04'1211.8
2016-May-23 15:33N 54°12' E 000°15'1212.2
2016-May-23 14:33N 54°02' E 000°26'6813.5
2016-May-23 09:32N 53°04' E 001°27'1111.2
2016-May-23 08:33N 52°55' E 001°37'1110.9
2016-May-23 07:33N 52°48' E 001°50'1010.2
2016-May-23 06:33N 52°38' E 001°56'1313.2
2016-May-23 05:34N 52°25' E 001°53'1514.7
2016-May-23 04:34N 52°10' E 001°50'1515.4
2016-May-23 03:33N 51°55' E 001°48'1515.1
2016-May-23 02:34N 51°40' E 001°49'1515.0
2016-May-23 01:34N 51°25' E 001°46'1615.7
2016-May-23 00:33N 51°10' E 001°38'1212.1
2016-May-22 23:33N 50°59' E 001°30'1814.5
2016-May-22 22:20N 50°43' E 001°20'4014.5
2016-May-22 19:33N 50°25' E 000°23'1414.2
2016-May-22 18:33N 50°20' E 000°02'1313.3
2016-May-22 17:33N 50°16' W 000°18'1312.5
2016-May-22 16:33N 50°12' W 000°36'1211.5
2016-May-22 15:31N 50°10' W 000°55'1110.8
2016-May-22 14:32N 50°08' W 001°11'1210.6
2016-May-22 13:23N 50°03' W 001°28'5713.3
2016-May-22 09:06N 49°48' W 002°54'914.7
2016-May-22 08:30N 49°44' W 003°06'9015.2
2016-May-22 02:33N 48°60' W 005°07'  
Track history (hours):
 
Tides and Currents Weather Stations Pressure Air Temp Water Temp Dewpoint Dewpoint Depression Visibility Wind Speed Wind Dir Waves Ship Positions

Lifter

Last reported at 2016-May-30 17:31 UTC. Time now 2016-May-30 18:25 UTC.
Position N 51°15' E 004°24'.

Length 119 m; draft 4.8 m.

Type: Cargo ship. MMSI: 305175000.

Date/timePositionNaut miles runAvg speedWind from/ knotsBaromVisibWave heightAir tempDewpointWater temp
2016-May-30 17:31N 51°15' E 004°24'0 0.0
2016-May-30 16:31N 51°15' E 004°24'0 0.0
2016-May-30 15:31N 51°15' E 004°24'0 0.0
2016-May-30 14:31N 51°15' E 004°24'0 0.0
2016-May-30 13:31N 51°15' E 004°24'0 0.0
2016-May-30 12:31N 51°15' E 004°24'0 0.0
2016-May-30 11:31N 51°15' E 004°24'0 0.0
2016-May-30 10:31N 51°15' E 004°24'0 0.0
2016-May-30 09:31N 51°15' E 004°24'0 0.0
2016-May-30 08:31N 51°15' E 004°24'0 0.0
2016-May-30 07:31N 51°15' E 004°24'0 0.0
2016-May-30 06:31N 51°15' E 004°24'0 0.0
2016-May-30 05:31N 51°15' E 004°24'0 0.0
2016-May-30 04:31N 51°15' E 004°24'0 0.0
2016-May-30 03:31N 51°15' E 004°24'0 0.0
2016-May-30 02:31N 51°15' E 004°24'0 0.0
2016-May-30 01:31N 51°15' E 004°24'0 0.0
2016-May-30 00:31N 51°15' E 004°24'0 0.0
2016-May-29 23:31N 51°15' E 004°24'0 0.0
2016-May-29 22:31N 51°15' E 004°24'0 0.0
2016-May-29 21:31N 51°15' E 004°24'0 0.0
2016-May-29 20:31N 51°15' E 004°24'0 0.0
2016-May-29 19:31N 51°15' E 004°24'0 0.0
2016-May-29 18:31N 51°15' E 004°24'0 0.0
2016-May-29 17:31N 51°15' E 004°24'0 0.0
2016-May-29 16:31N 51°15' E 004°24'0 0.0
2016-May-29 15:31N 51°15' E 004°24'0 0.0
2016-May-29 14:31N 51°15' E 004°24'0 0.0
2016-May-29 13:31N 51°15' E 004°24'0 0.0
2016-May-29 12:31N 51°15' E 004°24'0 0.0
2016-May-29 11:31N 51°15' E 004°24'0 0.0
2016-May-29 10:31N 51°15' E 004°24'0 0.0
2016-May-29 09:31N 51°15' E 004°24'0 0.0
2016-May-29 08:31N 51°15' E 004°24'0 0.0
2016-May-29 07:31N 51°15' E 004°24'0 0.0
2016-May-29 06:31N 51°15' E 004°24'0 0.0
2016-May-29 05:31N 51°15' E 004°24'0 0.0
2016-May-29 04:31N 51°15' E 004°24'0 0.0
2016-May-29 03:33N 51°15' E 004°24'4 4.1
2016-May-29 02:33N 51°18' E 004°20'3 3.1
2016-May-29 01:33N 51°21' E 004°17'7 6.6
2016-May-29 00:33N 51°22' E 004°07'7 6.9
2016-May-28 23:33N 51°22' E 003°56'10 9.8
2016-May-28 22:33N 51°25' E 003°40'1010.4
2016-May-28 21:33N 51°31' E 003°27'1312.7
2016-May-28 20:32N 51°42' E 003°16'1312.9
2016-May-28 19:33N 51°46' E 002°57'1313.2
2016-May-28 18:33N 51°51' E 002°37'1313.2
2016-May-28 17:33N 52°03' E 002°27'1313.5
2016-May-28 16:33N 52°15' E 002°18'1414.0
2016-May-28 15:33N 52°27' E 002°07'1414.4
2016-May-28 14:33N 52°40' E 001°58'1514.7
2016-May-28 13:34N 52°51' E 001°42'1515.3
2016-May-28 12:33N 53°03' E 001°26'1515.3
2016-May-28 11:33N 53°16' E 001°12'1615.8
2016-May-28 10:33N 53°30' E 000°59'1414.3
2016-May-28 09:32N 53°42' E 000°45'1715.1
2016-May-28 08:26N 53°56' E 000°30'1315.1
2016-May-28 07:33N 54°08' E 000°20'1514.8
2016-May-28 06:33N 54°21' E 000°10'1514.6
2016-May-28 05:33N 54°35' E 000°02'1414.2
2016-May-28 04:33N 54°49' W 000°06'1414.0
2016-May-28 03:33N 55°01' W 000°16'1413.7
2016-May-28 02:31N 55°14' W 000°29'1313.6
2016-May-28 01:32N 55°25' W 000°41'1313.4
2016-May-28 00:32N 55°35' W 000°56'1313.3
2016-May-27 23:33N 55°45' W 001°12'1413.5
2016-May-27 22:33N 55°53' W 001°31'1413.9
2016-May-27 21:33N 56°00' W 001°52'1414.0
2016-May-27 20:33N 56°05' W 002°16'1414.0
2016-May-27 19:33N 56°06' W 002°41'1413.8
2016-May-27 18:33N 56°03' W 003°05'1211.0
2016-May-27 17:30N 56°01' W 003°25'0 0.0
2016-May-26 15:07N 56°01' W 003°25'4 6.8
2016-May-26 14:33N 56°01' W 003°19'1010.5
2016-May-26 13:33N 56°04' W 003°00'2 2.3
2016-May-26 12:33N 56°05' W 002°57'6 5.9
2016-May-26 11:33N 56°07' W 002°47'0 0.1
2016-May-26 10:33N 56°07' W 002°47'1 0.8
2016-May-26 09:33N 56°06' W 002°48'10 9.7
2016-May-26 08:33N 56°09' W 002°31'1211.7
2016-May-26 07:33N 56°18' W 002°17'1413.6
2016-May-26 06:34N 56°30' W 002°06'1413.9
2016-May-26 05:33N 56°43' W 001°58'1514.7
2016-May-26 04:33N 56°57' W 001°50'3015.1
2016-May-26 02:33N 57°26' W 001°34'24 0.6
2016-May-24 09:32N 57°45' W 002°00'1512.4
2016-May-24 08:19N 57°35' W 001°40'1114.0
2016-May-24 07:32N 57°24' W 001°36'5213.0
2016-May-24 03:32N 56°33' W 001°29'1212.1
2016-May-24 02:34N 56°21' W 001°28'1212.1
2016-May-24 01:34N 56°09' W 001°22'1312.7
2016-May-24 00:34N 55°57' W 001°14'1313.4
2016-May-23 23:33N 55°45' W 001°05'1413.7
2016-May-23 22:34N 55°32' W 000°55'1413.8
2016-May-23 21:34N 55°20' W 000°46'1413.7
2016-May-23 20:33N 55°07' W 000°37'1413.8
2016-May-23 19:33N 54°54' W 000°28'1313.2
2016-May-23 18:32N 54°42' W 000°16'1212.2
2016-May-23 17:33N 54°32' W 000°06'1211.8
2016-May-23 16:33N 54°22' E 000°04'1211.8
2016-May-23 15:33N 54°12' E 000°15'1212.2
2016-May-23 14:33N 54°02' E 000°26'6813.5
2016-May-23 09:32N 53°04' E 001°27'1111.2
2016-May-23 08:33N 52°55' E 001°37'1110.9
2016-May-23 07:33N 52°48' E 001°50'1010.2
2016-May-23 06:33N 52°38' E 001°56'1313.2
2016-May-23 05:34N 52°25' E 001°53'1514.7
2016-May-23 04:34N 52°10' E 001°50'1515.4
2016-May-23 03:33N 51°55' E 001°48'1515.1
2016-May-23 02:34N 51°40' E 001°49'1515.0
2016-May-23 01:34N 51°25' E 001°46'1615.7
2016-May-23 00:33N 51°10' E 001°38'1212.1
2016-May-22 23:33N 50°59' E 001°30'1814.5
2016-May-22 22:20N 50°43' E 001°20'4014.5
2016-May-22 19:33N 50°25' E 000°23'1414.2
2016-May-22 18:33N 50°20' E 000°02'1313.3
2016-May-22 17:33N 50°16' W 000°18'1312.5
2016-May-22 16:33N 50°12' W 000°36'1211.5
2016-May-22 15:31N 50°10' W 000°55'1110.8
2016-May-22 14:32N 50°08' W 001°11'1210.6
2016-May-22 13:23N 50°03' W 001°28'5713.3
2016-May-22 09:06N 49°48' W 002°54'914.7
2016-May-22 08:30N 49°44' W 003°06'9015.2
2016-May-22 02:33N 48°60' W 005°07'  

Dump ship's entire track history